Latest Weather Observations for Hartz Mountains

IDT60801

Issued at 9:35 am EDT Wednesday 26 November 2014 (issued every 30 minutes, with the page automatically refreshed every 10 minutes)

About weather observations | Map of weather stations | Latest weather observations for TAS | Other Formats
Station Details ID: 094191 Name: HARTZ MOUNTAIN (KEOGHS PIMPLE) Lat: -43.20 Lon: 146.77 Height: 831.0 m
Data from the previous 72 hours. | See also: Recent months at Hartz Mountains
Date/Time
EDT
Temp
°C
App
Temp
°C
Dew
Point
Rel
Hum
%
Delta-T
°C
Wind Press
QNH
hPa
Press
MSL
hPa
Rain
since 9 am
mm
Dir
 
Spd
km/h
Gust
km/h
Spd
kts
Gust
kts
26/09:30am 3.4 -2.7 3.0 97 0.2 W 24 46 13 25 - - 0.2
26/09:00am 3.1 -4.2 2.5 96 0.3 WSW 30 48 16 26 - - 1.8
26/08:35am 3.6 -5.1 2.3 91 0.5 W 37 76 20 41 - - 1.6
26/08:31am 3.5 -5.5 2.2 91 0.5 WSW 39 50 21 27 - - 1.6
26/08:30am 3.4 -5.7 2.1 91 0.5 W 39 63 21 34 - - 1.6
26/08:00am 3.9 -4.3 2.7 92 0.5 WSW 35 69 19 37 - - 1.6
26/07:30am 3.3 -5.8 2.0 91 0.5 WSW 39 59 21 32 - - 1.6
26/07:00am 3.4 -6.5 1.8 89 0.7 WSW 43 65 23 35 - - 1.6
26/06:30am 3.1 -6.3 2.1 93 0.4 WSW 41 76 22 41 - - 1.6
26/06:00am 2.9 -7.6 1.3 89 0.7 W 46 78 25 42 - - 1.6
26/05:30am 2.7 -7.9 0.8 87 0.8 WSW 46 69 25 37 - - 1.6
26/05:00am 2.8 -8.9 1.0 88 0.7 WSW 52 93 28 50 - - 1.6
26/04:50am 2.9 -9.5 1.6 91 0.5 WSW 56 80 30 43 - - 1.6
26/04:39am 2.9 -5.5 1.7 92 0.5 W 35 76 19 41 - - 1.6
26/04:38am 2.9 -5.5 1.6 91 0.5 W 35 56 19 30 - - 1.6
26/04:30am 2.9 -2.6 2.0 94 0.4 W 20 50 11 27 - - 1.6
26/04:00am 3.1 -3.8 2.4 95 0.3 W 28 74 15 40 - - 1.6
26/03:30am 3.2 -5.0 2.8 97 0.2 W 35 63 19 34 - - 1.6
26/03:21am 3.3 -5.2 2.9 97 0.2 W 37 59 20 32 - - 1.6
26/03:07am 3.4 -8.7 3.1 98 0.1 WSW 56 95 30 51 - - 1.6
26/03:00am 4.0 -7.6 3.7 98 0.1 WSW 54 72 29 39 - - 1.6
26/02:30am 4.6 -4.4 4.5 99 0.0 W 41 80 22 43 - - 1.6
26/02:00am 4.8 -4.2 4.7 99 0.0 WSW 41 80 22 43 - - 1.4
26/01:57am 4.8 -3.8 4.7 99 0.0 WSW 39 80 21 43 - - 1.4
26/01:48am 4.8 -8.0 4.7 99 0.0 WSW 61 87 33 47 - - 1.4
26/01:30am 4.9 -4.1 4.8 99 0.0 W 41 72 22 39 - - 1.4
26/01:20am 5.3 -4.1 5.2 99 0.0 WSW 44 69 24 37 - - 1.2
26/01:19am 5.4 -3.8 5.3 99 0.0 WSW 43 57 23 31 - - 1.2
26/01:00am 5.5 -3.3 5.4 99 0.0 W 41 74 22 40 - - 0.8
26/12:30am 5.3 -4.9 5.2 99 0.0 WNW 48 72 26 39 - - 0.6
26/12:00am 5.1 -5.9 5.0 99 0.0 WNW 52 80 28 43 - - 0.4
 
Date/Time
EDT
Temp
°C
App
Temp
°C
Dew
Point
Rel
Hum
%
Delta-T
°C
Wind Press
QNH
hPa
Press
MSL
hPa
Rain
since 9 am
mm
Dir
 
Spd
km/h
Gust
km/h
Spd
kts
Gust
kts
25/11:47pm 5.0 -5.6 4.9 99 0.0 WNW 50 82 27 44 - - 0.4
25/11:30pm 4.9 -3.7 4.8 99 0.0 WNW 39 61 21 33 - - 0.4
25/11:00pm 4.6 -4.8 4.5 99 0.0 WNW 43 69 23 37 - - 0.4
25/10:30pm 4.3 -4.0 4.2 99 0.0 W 37 69 20 37 - - 0.4
25/10:00pm 4.2 -3.2 4.1 99 0.0 WNW 32 56 17 30 - - 0.2
25/09:30pm 4.2 -4.1 4.1 99 0.0 W 37 72 20 39 - - 0.2
25/09:22pm 4.1 -5.0 4.0 99 0.0 WNW 41 70 22 38 - - 0.2
25/09:00pm 4.0 -3.6 3.9 99 0.0 WNW 33 52 18 28 - - 0.2
25/08:30pm 3.8 -4.3 3.5 98 0.1 WNW 35 65 19 35 - - 0.2
25/08:00pm 3.8 -3.9 3.5 98 0.1 W 33 54 18 29 - - 0.2
25/07:30pm 3.9 -4.2 3.2 95 0.3 WNW 35 59 19 32 - - 0.2
25/07:00pm 4.3 -5.1 2.3 87 0.8 W 41 85 22 46 - - 0.2
25/06:30pm 4.6 -6.6 2.1 84 1.1 WNW 50 70 27 38 - - 0.2
25/06:00pm 3.8 -6.5 2.8 93 0.4 W 46 69 25 37 - - 0.2
25/05:30pm 4.1 -6.1 3.1 93 0.4 WNW 46 74 25 40 - - 0.2
25/05:00pm 4.3 -6.3 3.3 93 0.4 WNW 48 76 26 41 - - 0.2
25/04:41pm 4.2 -7.6 2.6 89 0.7 WNW 54 80 29 43 - - 0.2
25/04:30pm 4.1 -3.7 2.6 90 0.6 W 33 57 18 31 - - 0.2
25/04:00pm 4.1 -5.6 3.1 93 0.4 W 43 72 23 39 - - 0.2
25/03:30pm 4.6 -5.5 3.9 95 0.3 WNW 46 74 25 40 - - 0.0
25/03:00pm 4.9 -3.0 4.3 96 0.3 W 35 63 19 34 - - 0.0
25/02:30pm 4.8 -6.8 3.8 93 0.4 WNW 54 72 29 39 - - 0.0
25/02:00pm 5.0 -4.5 4.1 94 0.4 WNW 43 63 23 34 - - 0.0
25/01:30pm 5.7 -1.8 4.3 91 0.6 WNW 33 57 18 31 - - 0.0
25/01:00pm 6.0 -2.7 4.3 89 0.8 WNW 39 80 21 43 - - 0.0
25/12:51pm 5.6 -1.8 4.2 91 0.6 W 32 76 17 41 - - 0.0
25/12:30pm 5.2 -2.1 4.5 95 0.3 WNW 32 52 17 28 - - 0.0
25/12:00pm 5.6 -2.4 3.8 88 0.8 W 35 54 19 29 - - 0.0
25/11:30am 5.0 -2.6 4.0 93 0.4 W 33 65 18 35 - - 0.0
25/11:07am 5.1 -4.5 3.6 90 0.7 W 43 63 23 34 - - 0.0
25/11:00am 6.0 1.5 4.3 89 0.8 W 17 22 9 12 - - 0.0
25/10:59am 5.9 1.3 3.9 87 0.9 WNW 17 22 9 12 - - 0.0
25/10:30am 5.1 -3.2 4.4 95 0.3 WSW 37 70 20 38 - - 0.0
25/10:00am 4.0 -2.7 3.6 97 0.2 W 28 57 15 31 - - 0.0
25/09:30am 3.6 -4.9 3.2 97 0.2 W 37 63 20 34 - - 0.0
25/09:00am 3.4 -4.2 3.1 98 0.1 W 32 59 17 32 - - 5.0
25/08:30am 3.9 -4.9 3.6 98 0.1 W 39 63 21 34 - - 4.8
25/08:00am 3.7 -5.9 3.4 98 0.1 W 43 70 23 38 - - 4.8
25/07:30am 3.5 -6.7 3.2 98 0.1 W 46 72 25 39 - - 4.8
25/07:00am 3.7 -6.1 3.4 98 0.1 W 44 69 24 37 - - 4.6
25/06:44am 3.6 -6.2 3.3 98 0.1 WSW 44 80 24 43 - - 4.6
25/06:30am 3.8 -3.7 3.5 98 0.1 W 32 54 17 29 - - 4.4
25/06:00am 3.8 -6.3 3.5 98 0.1 WNW 46 67 25 36 - - 4.2
25/05:30am 3.8 -5.8 3.4 97 0.2 W 43 76 23 41 - - 4.0
25/05:00am 4.0 -3.1 3.6 97 0.2 W 30 57 16 31 - - 4.0
25/04:30am 4.1 -4.3 3.7 97 0.2 W 37 74 20 40 - - 3.8
25/04:15am 4.1 -4.7 3.7 97 0.2 WNW 39 67 21 36 - - 3.8
25/04:00am 4.0 -5.2 3.6 97 0.2 W 41 76 22 41 - - 3.6
25/03:30am 4.3 -4.9 3.6 95 0.3 W 41 69 22 37 - - 3.2
25/03:28am 4.3 -4.1 3.6 95 0.3 W 37 63 20 34 - - 3.2
25/03:27am 4.3 -3.7 3.6 95 0.3 W 35 50 19 27 - - 3.2
25/03:23am 4.2 -6.3 3.6 96 0.3 WSW 48 72 26 39 - - 3.2
25/03:01am 4.2 -4.2 3.8 97 0.2 WNW 37 63 20 34 - - 3.0
25/03:00am 4.2 -3.8 3.8 97 0.2 WNW 35 52 19 28 - - 3.0
25/02:59am 4.2 -4.2 3.8 97 0.2 WNW 37 52 20 28 - - 3.0
25/02:30am 4.2 -5.3 3.9 98 0.1 W 43 74 23 40 - - 3.0
25/02:00am 4.3 -5.4 4.0 98 0.1 WNW 44 70 24 38 - - 2.8
25/01:30am 4.3 -5.8 4.0 98 0.1 W 46 70 25 38 - - 2.6
25/01:00am 4.3 -6.5 3.9 97 0.2 W 50 72 27 39 - - 2.6
25/12:30am 4.1 -6.8 3.7 97 0.2 W 50 72 27 39 - - 2.6
25/12:00am 3.9 -5.8 3.0 94 0.4 WNW 43 67 23 36 - - 2.6
 
Date/Time
EDT
Temp
°C
App
Temp
°C
Dew
Point
Rel
Hum
%
Delta-T
°C
Wind Press
QNH
hPa
Press
MSL
hPa
Rain
since 9 am
mm
Dir
 
Spd
km/h
Gust
km/h
Spd
kts
Gust
kts
24/11:30pm 4.1 -5.5 3.2 94 0.4 W 43 65 23 35 - - 2.6
24/11:00pm 4.5 -4.7 3.5 93 0.4 W 41 70 22 38 - - 2.6
24/10:30pm 4.6 -4.1 3.9 95 0.3 W 39 61 21 33 - - 2.6
24/10:00pm 4.6 -4.5 3.9 95 0.3 W 41 63 22 34 - - 2.6
24/09:30pm 4.3 -5.5 3.3 93 0.4 W 44 63 24 34 - - 2.6
24/09:00pm 4.5 -5.0 3.9 96 0.3 W 43 61 23 33 - - 2.6
24/08:30pm 4.9 -5.1 4.2 95 0.3 W 46 67 25 36 - - 2.6
24/08:00pm 5.0 -4.7 4.1 94 0.4 W 44 65 24 35 - - 2.6
24/07:30pm 5.6 -2.7 4.4 92 0.5 W 37 56 20 30 - - 2.6
24/07:12pm 5.1 -2.5 3.9 92 0.5 W 33 52 18 28 - - 2.6
24/07:00pm 5.5 -1.4 4.5 93 0.5 W 30 46 16 25 - - 2.6
24/06:30pm 6.2 -0.9 5.3 94 0.4 W 32 52 17 28 - - 2.4
24/06:05pm 6.8 0.6 6.1 95 0.3 W 28 46 15 25 - - 2.4
24/06:00pm 7.0 -0.1 6.3 95 0.3 W 33 48 18 26 - - 2.4
24/05:30pm 7.6 0.3 7.0 96 0.3 W 35 65 19 35 - - 2.4
24/05:18pm 8.4 2.6 7.8 96 0.3 W 28 50 15 27 - - 2.4
24/05:00pm 8.5 3.1 7.9 96 0.3 WNW 26 37 14 20 - - 2.2
24/04:30pm 9.0 5.0 8.4 96 0.3 W 19 32 10 17 - - 2.0
24/04:00pm 9.2 3.9 8.4 95 0.4 W 26 37 14 20 - - 2.0
24/03:46pm 9.3 3.6 8.5 95 0.4 WNW 28 46 15 25 - - 2.0
24/03:30pm 9.4 3.0 8.6 95 0.4 W 32 43 17 23 - - 2.0
24/03:00pm 9.5 4.7 9.0 97 0.3 W 24 33 13 18 - - 1.8
24/02:30pm 9.3 5.4 8.7 96 0.3 WNW 19 33 10 18 - - 1.0
24/02:00pm 9.3 4.5 8.7 96 0.3 NW 24 37 13 20 - - 0.6
24/01:30pm 9.2 4.7 8.6 96 0.3 NNW 22 32 12 17 - - 0.6
24/01:00pm 9.1 5.1 8.3 95 0.4 NNW 19 32 10 17 - - 0.6
24/12:30pm 9.3 6.0 8.2 93 0.6 NW 15 20 8 11 - - 0.4
24/12:00pm 9.0 4.8 8.1 94 0.5 WNW 20 28 11 15 - - 0.4
24/11:30am 8.7 4.4 7.0 89 0.8 W 19 24 10 13 - - 0.0
24/11:00am 9.7 6.0 6.1 78 1.7 NW 15 24 8 13 - - 0.0
24/10:30am 10.5 5.1 4.6 67 2.8 NW 22 30 12 16 - - 0.0
24/10:00am 11.4 4.1 4.6 63 3.2 NW 32 39 17 21 - - 0.0
24/09:30am 10.8 3.9 4.7 66 2.9 NW 30 41 16 22 - - 0.0
24/09:00am 10.7 3.6 3.7 62 3.2 NW 30 41 16 22 - - 0.2
24/08:30am 10.1 4.7 4.3 67 2.7 NW 22 37 12 20 - - 0.2
24/08:00am 9.3 4.2 4.3 71 2.3 WNW 20 33 11 18 - - 0.2
24/07:30am 8.4 2.9 4.2 75 1.9 WNW 22 32 12 17 - - 0.2
24/07:00am 7.8 3.2 3.7 75 1.9 W 17 30 9 16 - - 0.2
24/06:30am 7.6 3.0 3.5 75 1.8 W 17 26 9 14 - - 0.2
24/06:00am 7.3 2.0 3.2 75 1.8 W 20 30 11 16 - - 0.2
24/05:30am 6.8 1.5 3.1 77 1.6 WNW 20 28 11 15 - - 0.2
24/05:00am 6.8 0.0 3.2 78 1.6 W 28 37 15 20 - - 0.2
24/04:30am 6.6 0.2 3.4 80 1.4 WNW 26 32 14 17 - - 0.2
24/04:00am 6.6 1.0 3.4 80 1.4 WNW 22 26 12 14 - - 0.2
24/03:30am 6.3 1.7 3.5 82 1.2 W 17 20 9 11 - - 0.2
24/03:00am 6.5 1.5 3.5 81 1.3 NW 19 20 10 11 - - 0.2
24/02:30am 6.7 2.4 3.5 80 1.4 NW 15 17 8 9 - - 0.2
24/02:00am 7.1 2.1 3.5 78 1.6 NW 19 22 10 12 - - 0.2
24/01:30am 7.2 2.5 3.4 77 1.7 NNW 17 20 9 11 - - 0.2
24/01:00am 7.5 2.5 3.6 76 1.8 NW 19 24 10 13 - - 0.2
24/12:30am 7.2 2.5 3.3 76 1.7 NW 17 22 9 12 - - 0.2
24/12:00am 7.6 2.0 3.3 74 1.9 W 22 28 12 15 - - 0.2
 
Date/Time
EDT
Temp
°C
App
Temp
°C
Dew
Point
Rel
Hum
%
Delta-T
°C
Wind Press
QNH
hPa
Press
MSL
hPa
Rain
since 9 am
mm
Dir
 
Spd
km/h
Gust
km/h
Spd
kts
Gust
kts
23/11:30pm 8.1 0.0 3.4 72 2.1 W 35 46 19 25 - - 0.2
23/11:00pm 7.6 2.0 3.6 76 1.8 W 22 33 12 18 - - 0.2
23/10:30pm 7.9 3.7 3.8 75 1.9 WNW 15 22 8 12 - - 0.2
23/10:00pm 8.1 3.9 3.6 73 2.0 W 15 32 8 17 - - 0.2
23/09:30pm 8.4 0.1 4.0 74 2.0 W 37 56 20 30 - - 0.2
23/09:06pm 8.5 0.6 4.3 75 1.9 W 35 54 19 29 - - 0.2
23/09:00pm 8.7 0.4 4.1 73 2.1 W 37 50 20 27 - - 0.2
23/08:40pm 9.1 0.4 4.1 71 2.3 W 39 57 21 31 - - 0.2
23/08:30pm 9.2 0.6 4.4 72 2.2 W 39 56 21 30 - - 0.2
23/08:01pm 10.0 3.4 4.4 68 2.6 W 28 48 15 26 - - 0.2
23/08:00pm 10.1 3.6 4.7 69 2.5 W 28 39 15 21 - - 0.2
23/07:30pm 11.9 2.3 4.2 59 3.6 W 44 63 24 34 - - 0.2
23/07:12pm 11.8 2.1 3.8 58 3.7 W 44 63 24 34 - - 0.2
23/07:00pm 13.1 2.8 4.8 57 4.0 W 48 63 26 34 - - 0.2
23/06:50pm 13.3 4.0 5.2 58 4.0 W 43 61 23 33 - - 0.2
23/06:30pm 14.2 4.8 4.5 52 4.7 W 43 57 23 31 - - 0.2
23/06:00pm 15.1 6.9 4.5 49 5.2 W 37 46 20 25 - - 0.2
23/05:30pm 16.0 9.6 5.0 48 5.5 W 28 44 15 24 - - 0.2
23/05:00pm 16.9 10.9 5.5 47 5.7 W 26 37 14 20 - - 0.2
23/04:32pm 16.5 9.2 5.5 48 5.5 WNW 33 52 18 28 - - 0.2
23/04:30pm 16.5 8.7 4.9 46 5.8 WNW 35 52 19 28 - - 0.2
23/04:00pm 17.1 10.5 4.4 43 6.3 WNW 28 50 15 27 - - 0.2
23/03:30pm 18.2 12.2 7.0 48 5.9 WNW 28 44 15 24 - - 0.2
23/03:00pm 16.8 9.6 6.0 49 5.5 NW 33 46 18 25 - - 0.2
23/02:30pm 16.6 10.1 6.7 52 5.1 NW 30 48 16 26 - - 0.2
23/02:26pm 16.0 9.5 6.4 53 4.9 NNW 30 48 16 26 - - 0.2
23/02:00pm 14.5 8.9 7.1 61 3.8 W 26 46 14 25 - - 0.2
23/01:56pm 14.0 7.7 5.6 57 4.2 W 28 46 15 25 - - 0.2
23/01:30pm 15.1 9.4 8.3 64 3.6 W 28 41 15 22 - - 0.2
23/01:00pm 14.2 7.8 7.0 62 3.7 W 30 44 16 24 - - 0.2
23/12:30pm 12.9 6.4 6.3 64 3.3 W 30 41 16 22 - - 0.2
23/12:00pm 12.8 5.9 6.6 66 3.1 W 32 50 17 27 - - 0.2
23/11:37am 13.3 6.6 5.7 60 3.8 WNW 30 48 16 26 - - 0.2
23/11:30am 13.2 6.1 6.3 63 3.4 WNW 33 48 18 26 - - 0.2
23/11:00am 11.5 3.5 5.8 68 2.8 W 37 57 20 31 - - 0.0
23/10:30am 10.3 1.4 5.1 70 2.5 W 41 59 22 32 - - 0.0
23/10:00am 9.9 2.5 5.1 72 2.3 W 33 56 18 30 - - 0.0

Other Formats:

Comma delimited format used in spreadsheet applications
http://www.bom.gov.au/fwo/IDT60801/IDT60801.94977.axf

JavaScript Object Notation format (JSON) in row-major order
http://www.bom.gov.au/fwo/IDT60801/IDT60801.94977.json